sensor_id;sensor_type;location;lat;lon;timestamp;pressure;altitude;pressure_sealevel;temperature;humidity
35577;BME280;21680;52.400;16.920;2024-03-07T00:00:34;101807.07;;;3.70;81.71
35577;BME280;21680;52.400;16.920;2024-03-07T00:03:00;101810.42;;;3.68;81.48
35577;BME280;21680;52.400;16.920;2024-03-07T00:05:26;101807.94;;;3.65;81.35
35577;BME280;21680;52.400;16.920;2024-03-07T00:07:52;101808.28;;;3.63;81.24
35577;BME280;21680;52.400;16.920;2024-03-07T00:10:17;101807.73;;;3.57;81.26
35577;BME280;21680;52.400;16.920;2024-03-07T00:12:43;101809.30;;;3.53;81.14
35577;BME280;21680;52.400;16.920;2024-03-07T00:15:10;101809.64;;;3.49;81.24
35577;BME280;21680;52.400;16.920;2024-03-07T00:17:36;101808.56;;;3.45;80.97
35577;BME280;21680;52.400;16.920;2024-03-07T00:20:03;101810.14;;;3.44;80.96
35577;BME280;21680;52.400;16.920;2024-03-07T00:22:30;101806.42;;;3.39;81.29
35577;BME280;21680;52.400;16.920;2024-03-07T00:24:56;101808.33;;;3.34;81.18
35577;BME280;21680;52.400;16.920;2024-03-07T00:27:22;101807.10;;;3.33;81.04
35577;BME280;21680;52.400;16.920;2024-03-07T00:29:48;101806.56;;;3.33;81.09
35577;BME280;21680;52.400;16.920;2024-03-07T00:32:21;101809.55;;;3.30;81.13
35577;BME280;21680;52.400;16.920;2024-03-07T00:34:48;101811.13;;;3.28;80.85
35577;BME280;21680;52.400;16.920;2024-03-07T00:37:14;101809.55;;;3.28;80.89
35577;BME280;21680;52.400;16.920;2024-03-07T00:39:39;101809.17;;;3.27;80.99
35577;BME280;21680;52.400;16.920;2024-03-07T00:42:05;101808.83;;;3.28;80.89
35577;BME280;21680;52.400;16.920;2024-03-07T00:44:31;101805.48;;;3.29;80.88
35577;BME280;21680;52.400;16.920;2024-03-07T00:46:56;101802.83;;;3.28;80.75
35577;BME280;21680;52.400;16.920;2024-03-07T00:49:23;101801.77;;;3.27;80.56
35577;BME280;21680;52.400;16.920;2024-03-07T00:51:49;101801.06;;;3.28;80.69
35577;BME280;21680;52.400;16.920;2024-03-07T00:54:14;101798.60;;;3.30;80.74
35577;BME280;21680;52.400;16.920;2024-03-07T00:56:40;101799.66;;;3.32;80.59
35577;BME280;21680;52.400;16.920;2024-03-07T00:59:05;101800.55;;;3.32;80.61
35577;BME280;21680;52.400;16.920;2024-03-07T01:01:31;101796.66;;;3.33;80.56
35577;BME280;21680;52.400;16.920;2024-03-07T01:03:59;101800.90;;;3.32;80.32
35577;BME280;21680;52.400;16.920;2024-03-07T01:06:25;101792.25;;;3.31;80.48
35577;BME280;21680;52.400;16.920;2024-03-07T01:08:50;101792.07;;;3.30;80.51
35577;BME280;21680;52.400;16.920;2024-03-07T01:11:17;101795.42;;;3.30;80.43
35577;BME280;21680;52.400;16.920;2024-03-07T01:13:42;101794.91;;;3.33;80.44
35577;BME280;21680;52.400;16.920;2024-03-07T01:16:08;101793.50;;;3.35;80.39
35577;BME280;21680;52.400;16.920;2024-03-07T01:18:33;101792.62;;;3.35;80.46
35577;BME280;21680;52.400;16.920;2024-03-07T01:21:02;101794.04;;;3.36;80.19
35577;BME280;21680;52.400;16.920;2024-03-07T01:23:28;101795.10;;;3.37;80.22
35577;BME280;21680;52.400;16.920;2024-03-07T01:25:58;101796.69;;;3.36;80.24
35577;BME280;21680;52.400;16.920;2024-03-07T01:28:25;101795.44;;;3.35;80.04
35577;BME280;21680;52.400;16.920;2024-03-07T01:30:52;101798.96;;;3.32;80.24
35577;BME280;21680;52.400;16.920;2024-03-07T01:33:18;101800.55;;;3.31;80.15
35577;BME280;21680;52.400;16.920;2024-03-07T01:35:44;101800.90;;;3.30;80.10
35577;BME280;21680;52.400;16.920;2024-03-07T01:38:09;101802.31;;;3.30;79.94
35577;BME280;21680;52.400;16.920;2024-03-07T01:40:36;101803.91;;;3.31;79.95
35577;BME280;21680;52.400;16.920;2024-03-07T01:43:02;101800.71;;;3.30;79.73
35577;BME280;21680;52.400;16.920;2024-03-07T01:45:27;101799.83;;;3.28;79.97
35577;BME280;21680;52.400;16.920;2024-03-07T01:47:55;101798.05;;;3.27;79.93
35577;BME280;21680;52.400;16.920;2024-03-07T01:50:21;101798.77;;;3.31;79.84
35577;BME280;21680;52.400;16.920;2024-03-07T01:52:46;101802.30;;;3.30;79.82
35577;BME280;21680;52.400;16.920;2024-03-07T01:55:16;101801.06;;;3.28;79.74
35577;BME280;21680;52.400;16.920;2024-03-07T01:57:41;101799.81;;;3.25;79.49
35577;BME280;21680;52.400;16.920;2024-03-07T02:00:07;101803.35;;;3.26;79.60
35577;BME280;21680;52.400;16.920;2024-03-07T02:02:34;101801.58;;;3.25;79.57
35577;BME280;21680;52.400;16.920;2024-03-07T02:04:59;101800.51;;;3.24;79.65
35577;BME280;21680;52.400;16.920;2024-03-07T02:07:25;101801.04;;;3.23;79.39
35577;BME280;21680;52.400;16.920;2024-03-07T02:09:59;101801.56;;;3.21;79.36
35577;BME280;21680;52.400;16.920;2024-03-07T02:12:24;101803.30;;;3.19;79.55
35577;BME280;21680;52.400;16.920;2024-03-07T02:14:50;101805.06;;;3.17;79.56
35577;BME280;21680;52.400;16.920;2024-03-07T02:17:15;101802.21;;;3.12;79.46
35577;BME280;21680;52.400;16.920;2024-03-07T02:19:40;101808.03;;;3.11;79.19
35577;BME280;21680;52.400;16.920;2024-03-07T02:22:06;101801.33;;;3.11;79.34
35577;BME280;21680;52.400;16.920;2024-03-07T02:24:31;101806.45;;;3.11;79.24
35577;BME280;21680;52.400;16.920;2024-03-07T02:26:57;101806.27;;;3.11;79.41
35577;BME280;21680;52.400;16.920;2024-03-07T02:29:24;101805.05;;;3.13;79.43
35577;BME280;21680;52.400;16.920;2024-03-07T02:31:49;101803.63;;;3.14;79.37
35577;BME280;21680;52.400;16.920;2024-03-07T02:34:15;101803.63;;;3.13;79.33
35577;BME280;21680;52.400;16.920;2024-03-07T02:36:41;101803.09;;;3.10;79.11
35577;BME280;21680;52.400;16.920;2024-03-07T02:39:07;101800.95;;;3.09;79.24
35577;BME280;21680;52.400;16.920;2024-03-07T02:41:32;101804.30;;;3.05;79.09
35577;BME280;21680;52.400;16.920;2024-03-07T02:43:59;101806.59;;;3.06;79.06
35577;BME280;21680;52.400;16.920;2024-03-07T02:46:26;101806.43;;;3.07;79.14
35577;BME280;21680;52.400;16.920;2024-03-07T02:48:51;101812.06;;;3.06;79.16
35577;BME280;21680;52.400;16.920;2024-03-07T02:51:18;101812.41;;;3.05;79.14
35577;BME280;21680;52.400;16.920;2024-03-07T02:53:44;101811.70;;;3.03;78.89
35577;BME280;21680;52.400;16.920;2024-03-07T02:56:09;101810.63;;;3.02;78.95
35577;BME280;21680;52.400;16.920;2024-03-07T02:58:34;101812.58;;;3.03;78.94
35577;BME280;21680;52.400;16.920;2024-03-07T03:01:00;101812.77;;;3.04;79.09
35577;BME280;21680;52.400;16.920;2024-03-07T03:03:26;101809.05;;;3.03;78.91
35577;BME280;21680;52.400;16.920;2024-03-07T03:05:52;101806.54;;;2.98;78.71
35577;BME280;21680;52.400;16.920;2024-03-07T03:08:17;101806.69;;;2.93;78.77
35577;BME280;21680;52.400;16.920;2024-03-07T03:10:43;101805.95;;;2.88;78.62
35577;BME280;21680;52.400;16.920;2024-03-07T03:13:09;101807.69;;;2.84;78.65
35577;BME280;21680;52.400;16.920;2024-03-07T03:15:34;101809.81;;;2.84;78.68
35577;BME280;21680;52.400;16.920;2024-03-07T03:18:00;101811.02;;;2.82;78.65
35577;BME280;21680;52.400;16.920;2024-03-07T03:20:25;101810.29;;;2.77;78.63
35577;BME280;21680;52.400;16.920;2024-03-07T03:22:52;101812.91;;;2.75;78.57
35577;BME280;21680;52.400;16.920;2024-03-07T03:25:19;101813.08;;;2.72;78.45
35577;BME280;21680;52.400;16.920;2024-03-07T03:27:45;101812.88;;;2.69;78.49
35577;BME280;21680;52.400;16.920;2024-03-07T03:30:12;101813.91;;;2.66;78.62
35577;BME280;21680;52.400;16.920;2024-03-07T03:32:40;101814.77;;;2.62;78.53
35577;BME280;21680;52.400;16.920;2024-03-07T03:35:07;101814.05;;;2.59;78.34
35577;BME280;21680;52.400;16.920;2024-03-07T03:37:38;101818.27;;;2.56;78.34
35577;BME280;21680;52.400;16.920;2024-03-07T03:40:05;101818.24;;;2.52;78.40
35577;BME280;21680;52.400;16.920;2024-03-07T03:42:31;101818.57;;;2.49;78.42
35577;BME280;21680;52.400;16.920;2024-03-07T03:44:56;101818.56;;;2.47;78.39
35577;BME280;21680;52.400;16.920;2024-03-07T03:47:22;101815.87;;;2.42;78.20
35577;BME280;21680;52.400;16.920;2024-03-07T03:49:47;101817.23;;;2.39;78.42
35577;BME280;21680;52.400;16.920;2024-03-07T03:52:12;101814.71;;;2.33;78.45
35577;BME280;21680;52.400;16.920;2024-03-07T03:54:38;101812.59;;;2.30;78.28
35577;BME280;21680;52.400;16.920;2024-03-07T03:57:03;101811.63;;;2.22;78.26
35577;BME280;21680;52.400;16.920;2024-03-07T03:59:28;101811.44;;;2.21;78.37
35577;BME280;21680;52.400;16.920;2024-03-07T04:01:53;101810.71;;;2.18;78.16
35577;BME280;21680;52.400;16.920;2024-03-07T04:04:19;101813.85;;;2.14;78.11
35577;BME280;21680;52.400;16.920;2024-03-07T04:06:44;101815.59;;;2.13;78.02
35577;BME280;21680;52.400;16.920;2024-03-07T04:09:09;101817.16;;;2.11;78.30
35577;BME280;21680;52.400;16.920;2024-03-07T04:11:35;101817.12;;;2.07;78.07
35577;BME280;21680;52.400;16.920;2024-03-07T04:14:00;101814.64;;;2.06;78.22
35577;BME280;21680;52.400;16.920;2024-03-07T04:16:26;101810.93;;;2.05;78.21
35577;BME280;21680;52.400;16.920;2024-03-07T04:18:52;101812.84;;;2.02;78.08
35577;BME280;21680;52.400;16.920;2024-03-07T04:21:17;101811.42;;;2.02;78.24
35577;BME280;21680;52.400;16.920;2024-03-07T04:23:42;101810.88;;;2.00;78.05
35577;BME280;21680;52.400;16.920;2024-03-07T04:26:08;101810.84;;;1.97;78.21
35577;BME280;21680;52.400;16.920;2024-03-07T04:28:34;101809.77;;;1.94;78.23
35577;BME280;21680;52.400;16.920;2024-03-07T04:30:59;101810.98;;;1.92;78.02
35577;BME280;21680;52.400;16.920;2024-03-07T04:33:24;101811.30;;;1.91;78.20
35577;BME280;21680;52.400;16.920;2024-03-07T04:35:50;101810.26;;;1.91;78.27
35577;BME280;21680;52.400;16.920;2024-03-07T04:38:17;101807.77;;;1.89;78.14
35577;BME280;21680;52.400;16.920;2024-03-07T04:40:43;101811.77;;;1.85;78.15
35577;BME280;21680;52.400;16.920;2024-03-07T04:43:08;101810.16;;;1.82;78.11
35577;BME280;21680;52.400;16.920;2024-03-07T04:45:33;101814.23;;;1.84;78.18
35577;BME280;21680;52.400;16.920;2024-03-07T04:47:59;101812.80;;;1.82;78.15
35577;BME280;21680;52.400;16.920;2024-03-07T04:50:24;101810.79;;;1.76;78.04
35577;BME280;21680;52.400;16.920;2024-03-07T04:52:49;101807.57;;;1.71;77.94
35577;BME280;21680;52.400;16.920;2024-03-07T04:55:15;101808.23;;;1.68;77.94
35577;BME280;21680;52.400;16.920;2024-03-07T04:57:40;101812.43;;;1.65;77.98
35577;BME280;21680;52.400;16.920;2024-03-07T05:00:11;101810.48;;;1.63;78.00
35577;BME280;21680;52.400;16.920;2024-03-07T05:02:44;101813.27;;;1.61;78.10
35577;BME280;21680;52.400;16.920;2024-03-07T05:05:10;101813.95;;;1.60;77.96
35577;BME280;21680;52.400;16.920;2024-03-07T05:07:35;101817.10;;;1.58;77.91
35577;BME280;21680;52.400;16.920;2024-03-07T05:10:04;101814.96;;;1.55;77.83
35577;BME280;21680;52.400;16.920;2024-03-07T05:12:31;101817.02;;;1.52;77.87
35577;BME280;21680;52.400;16.920;2024-03-07T05:14:56;101817.19;;;1.51;78.07
35577;BME280;21680;52.400;16.920;2024-03-07T05:17:23;101817.91;;;1.52;77.96
35577;BME280;21680;52.400;16.920;2024-03-07T05:19:48;101819.11;;;1.50;77.99
35577;BME280;21680;52.400;16.920;2024-03-07T05:22:15;101820.31;;;1.47;78.00
35577;BME280;21680;52.400;16.920;2024-03-07T05:24:44;101823.62;;;1.44;77.92
35577;BME280;21680;52.400;16.920;2024-03-07T05:27:09;101821.46;;;1.41;77.82
35577;BME280;21680;52.400;16.920;2024-03-07T05:29:38;101822.35;;;1.41;77.87
35577;BME280;21680;52.400;16.920;2024-03-07T05:32:23;101826.73;;;1.40;78.01
35577;BME280;21680;52.400;16.920;2024-03-07T05:34:53;101829.20;;;1.40;77.94
35577;BME280;21680;52.400;16.920;2024-03-07T05:37:20;101834.48;;;1.39;77.91
35577;BME280;21680;52.400;16.920;2024-03-07T05:39:54;101836.55;;;1.37;77.91
35577;BME280;21680;52.400;16.920;2024-03-07T05:42:19;101843.39;;;1.34;77.82
35577;BME280;21680;52.400;16.920;2024-03-07T05:44:45;101838.90;;;1.28;77.98
35577;BME280;21680;52.400;16.920;2024-03-07T05:47:10;101847.23;;;1.31;77.87
35577;BME280;21680;52.400;16.920;2024-03-07T05:49:38;101850.56;;;1.30;77.98
35577;BME280;21680;52.400;16.920;2024-03-07T05:52:04;101852.28;;;1.28;77.93
35577;BME280;21680;52.400;16.920;2024-03-07T05:54:31;101856.31;;;1.26;77.81
35577;BME280;21680;52.400;16.920;2024-03-07T05:56:57;101855.40;;;1.24;77.94
35577;BME280;21680;52.400;16.920;2024-03-07T05:59:22;101854.34;;;1.24;77.92
35577;BME280;21680;52.400;16.920;2024-03-07T06:01:48;101855.53;;;1.21;77.85
35577;BME280;21680;52.400;16.920;2024-03-07T06:04:13;101854.64;;;1.20;77.97
35577;BME280;21680;52.400;16.920;2024-03-07T06:06:38;101854.84;;;1.22;78.00
35577;BME280;21680;52.400;16.920;2024-03-07T06:09:05;101857.13;;;1.21;78.06
35577;BME280;21680;52.400;16.920;2024-03-07T06:11:36;101861.53;;;1.22;77.95
35577;BME280;21680;52.400;16.920;2024-03-07T06:14:03;101860.65;;;1.22;77.87
35577;BME280;21680;52.400;16.920;2024-03-07T06:16:33;101866.47;;;1.22;78.12
35577;BME280;21680;52.400;16.920;2024-03-07T06:19:00;101866.83;;;1.23;78.00
35577;BME280;21680;52.400;16.920;2024-03-07T06:21:29;101864.91;;;1.24;78.09
35577;BME280;21680;52.400;16.920;2024-03-07T06:23:58;101869.15;;;1.25;78.10
35577;BME280;21680;52.400;16.920;2024-03-07T06:26:37;101868.48;;;1.28;78.07
35577;BME280;21680;52.400;16.920;2024-03-07T06:29:08;101869.52;;;1.26;78.07
35577;BME280;21680;52.400;16.920;2024-03-07T06:31:36;101872.01;;;1.28;78.13
35577;BME280;21680;52.400;16.920;2024-03-07T06:34:02;101875.56;;;1.30;78.20
35577;BME280;21680;52.400;16.920;2024-03-07T06:36:27;101879.30;;;1.33;78.06
35577;BME280;21680;52.400;16.920;2024-03-07T06:38:56;101878.98;;;1.36;78.04
35577;BME280;21680;52.400;16.920;2024-03-07T06:41:21;101879.15;;;1.35;78.08
35577;BME280;21680;52.400;16.920;2024-03-07T06:43:47;101877.92;;;1.35;78.13
35577;BME280;21680;52.400;16.920;2024-03-07T06:46:15;101882.70;;;1.37;78.07
35577;BME280;21680;52.400;16.920;2024-03-07T06:48:42;101883.60;;;1.38;78.14
35577;BME280;21680;52.400;16.920;2024-03-07T06:51:09;101889.78;;;1.40;78.15
35577;BME280;21680;52.400;16.920;2024-03-07T06:53:34;101888.91;;;1.41;78.04
35577;BME280;21680;52.400;16.920;2024-03-07T06:56:00;101893.02;;;1.44;78.15
35577;BME280;21680;52.400;16.920;2024-03-07T06:58:26;101895.70;;;1.48;78.20
35577;BME280;21680;52.400;16.920;2024-03-07T07:00:52;101898.73;;;1.50;78.22
35577;BME280;21680;52.400;16.920;2024-03-07T07:03:20;101897.70;;;1.52;78.18
35577;BME280;21680;52.400;16.920;2024-03-07T07:05:46;101896.83;;;1.53;78.13
35577;BME280;21680;52.400;16.920;2024-03-07T07:08:11;101898.09;;;1.54;78.20
35577;BME280;21680;52.400;16.920;2024-03-07T07:10:39;101900.58;;;1.56;78.07
35577;BME280;21680;52.400;16.920;2024-03-07T07:13:06;101897.61;;;1.57;78.14
35577;BME280;21680;52.400;16.920;2024-03-07T07:15:31;101898.52;;;1.60;78.22
35577;BME280;21680;52.400;16.920;2024-03-07T07:17:57;101899.44;;;1.63;78.28
35577;BME280;21680;52.400;16.920;2024-03-07T07:20:22;101900.16;;;1.65;78.16
35577;BME280;21680;52.400;16.920;2024-03-07T07:22:49;101898.62;;;1.68;78.19
35577;BME280;21680;52.400;16.920;2024-03-07T07:25:15;101895.48;;;1.70;78.12
35577;BME280;21680;52.400;16.920;2024-03-07T07:27:51;101898.86;;;1.73;78.10
35577;BME280;21680;52.400;16.920;2024-03-07T07:30:21;101898.38;;;1.76;78.01
35577;BME280;21680;52.400;16.920;2024-03-07T07:32:48;101901.05;;;1.78;78.00
35577;BME280;21680;52.400;16.920;2024-03-07T07:35:14;101896.66;;;1.80;78.11
35577;BME280;21680;52.400;16.920;2024-03-07T07:37:40;101894.24;;;1.84;78.04
35577;BME280;21680;52.400;16.920;2024-03-07T07:40:07;101892.50;;;1.86;77.89
35577;BME280;21680;52.400;16.920;2024-03-07T07:42:46;101892.17;;;1.88;77.99
35577;BME280;21680;52.400;16.920;2024-03-07T07:45:13;101891.33;;;1.91;78.05
35577;BME280;21680;52.400;16.920;2024-03-07T07:47:45;101894.19;;;1.94;78.14
35577;BME280;21680;52.400;16.920;2024-03-07T07:50:12;101892.31;;;1.99;78.10
35577;BME280;21680;52.400;16.920;2024-03-07T07:52:43;101896.94;;;2.03;78.14
35577;BME280;21680;52.400;16.920;2024-03-07T07:55:09;101898.02;;;2.06;78.01
35577;BME280;21680;52.400;16.920;2024-03-07T07:57:46;101896.13;;;2.10;78.00
35577;BME280;21680;52.400;16.920;2024-03-07T08:00:13;101898.48;;;2.14;77.97
35577;BME280;21680;52.400;16.920;2024-03-07T08:02:53;101897.63;;;2.17;78.06
35577;BME280;21680;52.400;16.920;2024-03-07T08:05:23;101894.84;;;2.21;77.89
35577;BME280;21680;52.400;16.920;2024-03-07T08:07:50;101894.85;;;2.21;78.00
35577;BME280;21680;52.400;16.920;2024-03-07T08:10:19;101891.70;;;2.23;77.83
35577;BME280;21680;52.400;16.920;2024-03-07T08:12:46;101894.56;;;2.27;77.89
35577;BME280;21680;52.400;16.920;2024-03-07T08:15:12;101893.52;;;2.30;77.85
35577;BME280;21680;52.400;16.920;2024-03-07T08:17:42;101889.70;;;2.34;77.65
35577;BME280;21680;52.400;16.920;2024-03-07T08:20:12;101888.49;;;2.38;77.81
35577;BME280;21680;52.400;16.920;2024-03-07T08:22:42;101893.81;;;2.40;77.69
35577;BME280;21680;52.400;16.920;2024-03-07T08:25:12;101894.74;;;2.45;77.59
35577;BME280;21680;52.400;16.920;2024-03-07T08:27:38;101895.47;;;2.47;77.63
35577;BME280;21680;52.400;16.920;2024-03-07T08:30:05;101890.92;;;2.50;77.65
35577;BME280;21680;52.400;16.920;2024-03-07T08:32:41;101899.58;;;2.53;77.50
35577;BME280;21680;52.400;16.920;2024-03-07T08:35:09;101899.27;;;2.56;77.30
35577;BME280;21680;52.400;16.920;2024-03-07T08:37:51;101892.94;;;2.59;77.44
35577;BME280;21680;52.400;16.920;2024-03-07T08:40:22;101896.30;;;2.63;77.47
35577;BME280;21680;52.400;16.920;2024-03-07T08:42:52;101897.92;;;2.67;77.42
35577;BME280;21680;52.400;16.920;2024-03-07T08:45:19;101894.08;;;2.72;77.23
35577;BME280;21680;52.400;16.920;2024-03-07T08:47:46;101901.53;;;2.77;77.38
35577;BME280;21680;52.400;16.920;2024-03-07T08:50:12;101901.92;;;2.80;77.26
35577;BME280;21680;52.400;16.920;2024-03-07T08:52:39;101900.54;;;2.84;77.22
35577;BME280;21680;52.400;16.920;2024-03-07T08:55:06;101898.45;;;2.88;77.02
35577;BME280;21680;52.400;16.920;2024-03-07T08:57:35;101897.77;;;2.90;77.05
35577;BME280;21680;52.400;16.920;2024-03-07T09:00:02;101899.03;;;2.93;77.19
35577;BME280;21680;52.400;16.920;2024-03-07T09:02:33;101899.58;;;2.96;76.96
35577;BME280;21680;52.400;16.920;2024-03-07T09:05:00;101899.77;;;2.98;77.00
35577;BME280;21680;52.400;16.920;2024-03-07T09:07:25;101899.63;;;3.02;76.98
35577;BME280;21680;52.400;16.920;2024-03-07T09:09:50;101898.41;;;3.05;76.80
35577;BME280;21680;52.400;16.920;2024-03-07T09:12:16;101899.67;;;3.08;76.99
35577;BME280;21680;52.400;16.920;2024-03-07T09:14:41;101896.69;;;3.11;76.80
35577;BME280;21680;52.400;16.920;2024-03-07T09:17:06;101895.12;;;3.14;76.69
35577;BME280;21680;52.400;16.920;2024-03-07T09:19:31;101894.61;;;3.16;76.77
35577;BME280;21680;52.400;16.920;2024-03-07T09:21:57;101887.38;;;3.18;76.60
35577;BME280;21680;52.400;16.920;2024-03-07T09:24:22;101886.86;;;3.19;76.52
35577;BME280;21680;52.400;16.920;2024-03-07T09:26:51;101892.89;;;3.22;76.20
35577;BME280;21680;52.400;16.920;2024-03-07T09:29:17;101887.05;;;3.23;76.41
35577;BME280;21680;52.400;16.920;2024-03-07T09:31:44;101887.08;;;3.26;76.24
35577;BME280;21680;52.400;16.920;2024-03-07T09:34:09;101885.14;;;3.27;76.29
35577;BME280;21680;52.400;16.920;2024-03-07T09:36:35;101888.52;;;3.30;76.17
35577;BME280;21680;52.400;16.920;2024-03-07T09:39:00;101886.58;;;3.31;76.17
35577;BME280;21680;52.400;16.920;2024-03-07T09:41:25;101885.88;;;3.32;75.96
35577;BME280;21680;52.400;16.920;2024-03-07T09:43:52;101886.77;;;3.34;76.03
35577;BME280;21680;52.400;16.920;2024-03-07T09:46:23;101886.61;;;3.37;76.05
35577;BME280;21680;52.400;16.920;2024-03-07T09:48:50;101885.74;;;3.38;75.91
35577;BME280;21680;52.400;16.920;2024-03-07T09:51:20;101887.00;;;3.41;75.79
35577;BME280;21680;52.400;16.920;2024-03-07T09:53:49;101886.84;;;3.46;75.68
35577;BME280;21680;52.400;16.920;2024-03-07T09:56:17;101886.70;;;3.50;75.70
35577;BME280;21680;52.400;16.920;2024-03-07T09:58:42;101878.77;;;3.53;75.64
35577;BME280;21680;52.400;16.920;2024-03-07T10:01:11;101877.20;;;3.59;75.65
35577;BME280;21680;52.400;16.920;2024-03-07T10:03:37;101878.81;;;3.65;75.72
35577;BME280;21680;52.400;16.920;2024-03-07T10:06:07;101877.95;;;3.70;75.57
35577;BME280;21680;52.400;16.920;2024-03-07T10:08:35;101875.49;;;3.74;75.21
35577;BME280;21680;52.400;16.920;2024-03-07T10:11:00;101875.69;;;3.78;75.27
35577;BME280;21680;52.400;16.920;2024-03-07T10:13:25;101872.35;;;3.83;75.19
35577;BME280;21680;52.400;16.920;2024-03-07T10:15:51;101871.30;;;3.85;75.09
35577;BME280;21680;52.400;16.920;2024-03-07T10:18:17;101874.32;;;3.89;75.12
35577;BME280;21680;52.400;16.920;2024-03-07T10:20:47;101864.96;;;3.94;75.06
35577;BME280;21680;52.400;16.920;2024-03-07T10:23:18;101862.85;;;3.98;74.95
35577;BME280;21680;52.400;16.920;2024-03-07T10:25:46;101861.27;;;4.00;74.79
35577;BME280;21680;52.400;16.920;2024-03-07T10:28:11;101861.45;;;4.02;74.69
35577;BME280;21680;52.400;16.920;2024-03-07T10:30:40;101861.80;;;4.04;74.65
35577;BME280;21680;52.400;16.920;2024-03-07T10:33:06;101859.52;;;4.07;74.52
35577;BME280;21680;52.400;16.920;2024-03-07T10:35:32;101859.35;;;4.08;74.40
35577;BME280;21680;52.400;16.920;2024-03-07T10:37:59;101857.59;;;4.09;74.37
35577;BME280;21680;52.400;16.920;2024-03-07T10:40:25;101860.07;;;4.12;74.39
35577;BME280;21680;52.400;16.920;2024-03-07T10:42:57;101859.02;;;4.14;74.26
35577;BME280;21680;52.400;16.920;2024-03-07T10:45:28;101855.30;;;4.17;74.13
35577;BME280;21680;52.400;16.920;2024-03-07T10:47:55;101855.66;;;4.19;74.06
35577;BME280;21680;52.400;16.920;2024-03-07T10:53:19;101856.38;;;4.22;73.90
35577;BME280;21680;52.400;16.920;2024-03-07T10:58:45;101857.98;;;4.28;73.91
35577;BME280;21680;52.400;16.920;2024-03-07T11:01:14;101858.33;;;4.31;73.88
35577;BME280;21680;52.400;16.920;2024-03-07T11:03:39;101855.15;;;4.33;73.82
35577;BME280;21680;52.400;16.920;2024-03-07T11:06:06;101856.40;;;4.35;73.50
35577;BME280;21680;52.400;16.920;2024-03-07T11:08:33;101851.09;;;4.37;73.55
35577;BME280;21680;52.400;16.920;2024-03-07T11:10:59;101844.89;;;4.38;73.48
35577;BME280;21680;52.400;16.920;2024-03-07T11:13:25;101845.08;;;4.42;73.52
35577;BME280;21680;52.400;16.920;2024-03-07T11:15:52;101842.77;;;4.44;73.33
35577;BME280;21680;52.400;16.920;2024-03-07T11:18:23;101838.54;;;4.48;73.26
35577;BME280;21680;52.400;16.920;2024-03-07T11:20:52;101842.61;;;4.51;73.27
35577;BME280;21680;52.400;16.920;2024-03-07T11:23:33;101835.53;;;4.56;73.18
35577;BME280;21680;52.400;16.920;2024-03-07T11:26:05;101833.41;;;4.62;73.12
35577;BME280;21680;52.400;16.920;2024-03-07T11:28:36;101831.45;;;4.67;73.12
35577;BME280;21680;52.400;16.920;2024-03-07T11:31:25;101826.33;;;4.72;72.98
35577;BME280;21680;52.400;16.920;2024-03-07T11:34:14;101820.48;;;4.77;72.88
35577;BME280;21680;52.400;16.920;2024-03-07T11:36:45;101823.65;;;4.86;73.11
35577;BME280;21680;52.400;16.920;2024-03-07T11:39:40;101814.63;;;4.92;72.86
35577;BME280;21680;52.400;16.920;2024-03-07T11:42:07;101813.73;;;4.98;72.72
35577;BME280;21680;52.400;16.920;2024-03-07T11:44:33;101814.77;;;5.03;72.57
35577;BME280;21680;52.400;16.920;2024-03-07T11:47:01;101815.30;;;5.09;72.51
35577;BME280;21680;52.400;16.920;2024-03-07T11:49:35;101808.20;;;5.15;72.60
35577;BME280;21680;52.400;16.920;2024-03-07T11:52:02;101810.83;;;5.20;72.38
35577;BME280;21680;52.400;16.920;2024-03-07T11:54:37;101803.17;;;5.23;72.15
35577;BME280;21680;52.400;16.920;2024-03-07T11:57:07;101807.06;;;5.29;72.36
35577;BME280;21680;52.400;16.920;2024-03-07T11:59:40;101804.04;;;5.33;72.14
35577;BME280;21680;52.400;16.920;2024-03-07T12:02:05;101804.72;;;5.40;72.05
35577;BME280;21680;52.400;16.920;2024-03-07T12:04:30;101804.88;;;5.44;72.00
35577;BME280;21680;52.400;16.920;2024-03-07T12:06:57;101796.17;;;5.49;71.89
35577;BME280;21680;52.400;16.920;2024-03-07T12:09:25;101791.36;;;5.56;71.94
35577;BME280;21680;52.400;16.920;2024-03-07T12:11:50;101788.85;;;5.62;71.81
35577;BME280;21680;52.400;16.920;2024-03-07T12:14:19;101788.10;;;5.69;71.73
35577;BME280;21680;52.400;16.920;2024-03-07T12:16:45;101782.05;;;5.75;71.67
35577;BME280;21680;52.400;16.920;2024-03-07T12:19:11;101783.79;;;5.81;71.60
35577;BME280;21680;52.400;16.920;2024-03-07T12:21:36;101780.73;;;5.88;71.66
35577;BME280;21680;52.400;16.920;2024-03-07T12:24:14;101783.55;;;5.96;71.52
35577;BME280;21680;52.400;16.920;2024-03-07T12:26:40;101779.24;;;6.04;71.33
35577;BME280;21680;52.400;16.920;2024-03-07T12:29:10;101781.15;;;6.10;71.21
35577;BME280;21680;52.400;16.920;2024-03-07T12:31:39;101777.92;;;6.16;71.17
35577;BME280;21680;52.400;16.920;2024-03-07T12:34:05;101776.80;;;6.23;71.02
35577;BME280;21680;52.400;16.920;2024-03-07T12:36:31;101774.46;;;6.28;71.01
35577;BME280;21680;52.400;16.920;2024-03-07T12:39:01;101770.49;;;6.36;70.93
35577;BME280;21680;52.400;16.920;2024-03-07T12:41:49;101766.88;;;6.44;70.78
35577;BME280;21680;52.400;16.920;2024-03-07T12:44:18;101770.35;;;6.52;70.80
35577;BME280;21680;52.400;16.920;2024-03-07T12:46:47;101776.15;;;6.60;70.77
35577;BME280;21680;52.400;16.920;2024-03-07T12:49:13;101768.61;;;6.68;70.69
35577;BME280;21680;52.400;16.920;2024-03-07T12:51:43;101763.94;;;6.75;70.44
35577;BME280;21680;52.400;16.920;2024-03-07T12:54:09;101764.21;;;6.81;70.51
35577;BME280;21680;52.400;16.920;2024-03-07T12:56:36;101765.92;;;6.89;70.44